Accueil
METAR-TAF:

METAR-TAF

Aéroports :

Schwäbisch Hall, Allemagne

latitude: 49-07-06N, longitude: 9-47-02E, altitude: 398 m

Observation

Le bulletin a été fait il y a 17 minutes, à 20:20 UTC
Vent 1 kt de direction variable
Température 10°C
Humidité 87%
Pression 1031 hPa
Visibilité 10 km ou plus

METAR: EDTY 062020Z AUTO VRB01KT 9999 // NCD 10/08 Q1031

Heure: 22:37 (20:37 UTC)

Prévision

Le bulletin a été fait il y a 3 heures et 37 minutes, à 17:00 UTC
Prévision valable du 06 à 18 UTC au 07 à 03 UTC
Vent 3 kt de direction variable
Visibilité 10 km ou plus
Nuages épars à une hauteur de 3500 ft

TAF: EDTY 061700Z 0618/0703 VRB03KT 9999 SCT035

Observations et prévisions météorologiques de plus de 4000 aéroports (messages METAR et TAF).

Les stations disponibles sont représentées par des disques jaunes et rouges sur la carte.

Passer la souris dessus pour voir le nom de la station.

Cliquer dessus pour voir les observations et prévisions météorologiques.

Pour changer de carte: cliquez sur les boutons verts avec une croix noire pour zoomer, sur le bouton vert avec un tiret pour effectuer un zoom arrière, ou sur les flèches vertes pour les cartes adjacentes.


METAR-TAF: